Terminal Aerodrome Forecast
Issued by NWS

Home | Current Version | Previous Version | Text Only | Print | Product List | Glossary On
Versions: 1 2 3 4 5 6 7 8 9 10 11 12 13 14 15 16 17 18 19 20 21 22 23 24 25 26 27 28 29 30 31 32
000
FTUS45 KGJT 140520
TAFASE
TAF
KASE 140520Z 1406/1506 20006KT P6SM FEW100
     FM141400 VRB03KT P6SM FEW100 SCT250
     FM141800 36005KT P6SM SCT090 SCT250
     FM150200 16007KT P6SM SCT090 BKN200=

USA.gov is the U.S. government's official web portal to all federal, state and local government web resources and services.